Time;durP1;ratioP1;P1;durP2;ratioP2;P2;SDS_P1;SDS_P2;PMS_P1;PMS_P2;Temp;Humidity;BMP_temperature;BMP_pressure;BME280_temperature;BME280_humidity;BME280_pressure;Samples;Min_cycle;Max_cycle;Signal;HPM_P1;HPM_P2
2023/05/23 00:01:57;;;;;;;14.93;8.48;;;;;;;;;;5000535;28;20041;-85
2023/05/23 00:04:25;;;;;;;10.07;8.88;;;;;;;;;;5000696;28;20034;-84
2023/05/23 00:06:52;;;;;;;13.38;8.82;;;;;;;;;;4999377;28;20050;-84
2023/05/23 00:09:18;;;;;;;11.98;8.98;;;;;;;;;;5000459;28;20026;-85
2023/05/23 00:11:44;;;;;;;15.05;9.68;;;;;;;;;;5000504;28;20026;-84
2023/05/23 00:14:12;;;;;;;18.55;10.30;;;;;;;;;;5000607;28;20153;-84
2023/05/23 00:16:40;;;;;;;17.92;9.43;;;;;;;;;;5000106;28;20042;-84
2023/05/23 00:19:07;;;;;;;15.73;9.80;;;;;;;;;;5000434;28;20042;-84
2023/05/23 00:21:33;;;;;;;16.00;10.13;;;;;;;;;;5000227;28;20035;-84
2023/05/23 00:24:01;;;;;;;12.25;9.55;;;;;;;;;;5000032;28;20049;-84
2023/05/23 00:26:30;;;;;;;14.85;9.45;;;;;;;;;;5000192;28;20036;-84
2023/05/23 00:28:57;;;;;;;10.77;9.05;;;;;;;;;;4999904;28;20026;-85
2023/05/23 00:31:23;;;;;;;12.55;10.00;;;;;;;;;;4982904;28;20026;-86
2023/05/23 00:33:49;;;;;;;11.20;9.65;;;;;;;;;;5000398;28;20046;-86
2023/05/23 00:36:15;;;;;;;14.30;9.60;;;;;;;;;;5000403;28;20032;-86
2023/05/23 00:38:42;;;;;;;14.18;9.60;;;;;;;;;;5000310;28;20022;-86
2023/05/23 00:41:08;;;;;;;12.13;10.05;;;;;;;;;;5000134;28;20405;-86
2023/05/23 00:43:34;;;;;;;11.90;9.50;;;;;;;;;;4999995;28;20313;-86
2023/05/23 00:46:00;;;;;;;11.70;9.82;;;;;;;;;;4999869;28;20030;-86
2023/05/23 00:48:26;;;;;;;15.13;10.40;;;;;;;;;;4999423;28;20409;-86
2023/05/23 00:50:53;;;;;;;14.80;9.88;;;;;;;;;;5000006;28;20032;-85
2023/05/23 00:53:19;;;;;;;13.80;10.13;;;;;;;;;;4999918;28;20109;-85
2023/05/23 00:55:45;;;;;;;14.63;10.57;;;;;;;;;;4982092;28;20044;-85
2023/05/23 00:58:13;;;;;;;13.77;9.88;;;;;;;;;;4999712;28;20022;-85
2023/05/23 01:00:40;;;;;;;14.00;9.88;;;;;;;;;;4982394;28;20385;-85
2023/05/23 01:03:07;;;;;;;12.43;9.35;;;;;;;;;;4991501;28;20034;-85
2023/05/23 01:05:33;;;;;;;15.48;9.63;;;;;;;;;;4999398;28;20026;-85
2023/05/23 01:08:02;;;;;;;13.25;8.85;;;;;;;;;;4999189;28;20030;-85
2023/05/23 01:10:29;;;;;;;18.10;9.73;;;;;;;;;;4981597;28;20081;-85
2023/05/23 01:13:01;;;;;;;12.65;9.07;;;;;;;;;;4999466;28;20026;-85
2023/05/23 01:15:39;;;;;;;10.88;7.97;;;;;;;;;;4999157;28;20023;-85
2023/05/23 01:18:06;;;;;;;15.13;9.32;;;;;;;;;;4998524;28;20093;-84
2023/05/23 01:20:32;;;;;;;11.45;8.75;;;;;;;;;;4998542;28;20030;-85
2023/05/23 01:23:01;;;;;;;12.63;9.05;;;;;;;;;;4999073;28;20034;-84
2023/05/23 01:25:27;;;;;;;15.77;9.52;;;;;;;;;;4999340;28;20046;-85
2023/05/23 01:27:55;;;;;;;13.43;9.80;;;;;;;;;;4999106;28;20441;-85
2023/05/23 01:30:22;;;;;;;13.40;9.43;;;;;;;;;;4998175;28;20441;-85
2023/05/23 01:32:50;;;;;;;14.23;9.35;;;;;;;;;;4999088;28;20315;-85
2023/05/23 01:35:20;;;;;;;14.52;9.70;;;;;;;;;;4998868;28;20044;-86
2023/05/23 01:37:46;;;;;;;11.57;9.50;;;;;;;;;;4998952;28;20027;-85
2023/05/23 01:40:12;;;;;;;12.13;9.43;;;;;;;;;;4998998;28;20026;-85
2023/05/23 01:42:38;;;;;;;13.15;9.57;;;;;;;;;;4998564;28;20030;-85
2023/05/23 01:45:04;;;;;;;14.73;8.98;;;;;;;;;;4998617;28;20038;-85
2023/05/23 01:47:31;;;;;;;13.77;9.30;;;;;;;;;;4999042;28;20348;-85
2023/05/23 01:49:58;;;;;;;15.52;9.70;;;;;;;;;;4998396;28;20109;-85
2023/05/23 01:52:25;;;;;;;17.10;10.13;;;;;;;;;;4998596;28;20430;-86
2023/05/23 01:54:51;;;;;;;10.63;9.50;;;;;;;;;;4998690;28;20049;-85
2023/05/23 01:57:17;;;;;;;12.80;10.30;;;;;;;;;;4981392;28;20399;-85
2023/05/23 01:59:43;;;;;;;16.15;9.80;;;;;;;;;;4998510;28;20065;-85
2023/05/23 02:02:10;;;;;;;17.65;10.02;;;;;;;;;;4998658;28;20038;-85
2023/05/23 02:04:36;;;;;;;13.10;9.88;;;;;;;;;;4998416;28;20027;-85
2023/05/23 02:07:02;;;;;;;13.32;9.57;;;;;;;;;;4998527;28;20064;-86
2023/05/23 02:09:28;;;;;;;13.13;10.32;;;;;;;;;;4981220;28;20030;-85
2023/05/23 02:11:54;;;;;;;17.23;10.10;;;;;;;;;;4998466;28;20022;-85
2023/05/23 02:14:20;;;;;;;13.45;9.55;;;;;;;;;;4998525;28;20022;-85
2023/05/23 02:16:46;;;;;;;10.88;9.73;;;;;;;;;;4998273;28;20051;-85
2023/05/23 02:19:12;;;;;;;11.73;9.43;;;;;;;;;;4998047;28;20411;-86
2023/05/23 02:21:38;;;;;;;17.33;10.20;;;;;;;;;;4981185;28;20073;-85
2023/05/23 02:24:05;;;;;;;14.13;10.23;;;;;;;;;;4998193;28;20413;-85
2023/05/23 02:26:31;;;;;;;19.92;10.05;;;;;;;;;;4980999;28;20065;-86
2023/05/23 02:28:57;;;;;;;11.55;10.05;;;;;;;;;;4998150;28;20035;-85
2023/05/23 02:31:23;;;;;;;18.15;10.48;;;;;;;;;;4997661;28;20053;-84
2023/05/23 02:33:49;;;;;;;16.40;9.60;;;;;;;;;;4980883;28;20030;-85
2023/05/23 02:36:16;;;;;;;12.13;10.15;;;;;;;;;;4998172;28;20052;-85
2023/05/23 02:38:42;;;;;;;14.48;9.80;;;;;;;;;;4998044;28;20400;-86
2023/05/23 02:41:08;;;;;;;19.23;11.18;;;;;;;;;;4997973;28;20037;-86
2023/05/23 02:43:34;;;;;;;14.88;10.40;;;;;;;;;;4998220;28;20023;-86
2023/05/23 02:46:00;;;;;;;12.75;10.10;;;;;;;;;;4997978;28;20038;-86
2023/05/23 02:48:26;;;;;;;13.68;10.73;;;;;;;;;;4997694;28;20027;-86
2023/05/23 02:50:52;;;;;;;12.32;10.63;;;;;;;;;;4997839;28;20026;-85
2023/05/23 02:53:18;;;;;;;15.93;10.27;;;;;;;;;;4997937;28;20018;-85
2023/05/23 02:55:44;;;;;;;17.73;10.65;;;;;;;;;;4980651;28;20026;-85
2023/05/23 02:58:10;;;;;;;14.35;10.20;;;;;;;;;;4980652;28;20309;-85
2023/05/23 03:00:36;;;;;;;14.40;11.23;;;;;;;;;;4980545;28;20436;-85
2023/05/23 03:03:02;;;;;;;13.30;10.57;;;;;;;;;;4980522;28;20082;-85
2023/05/23 03:05:28;;;;;;;17.05;11.18;;;;;;;;;;4980599;28;20089;-85
2023/05/23 03:07:54;;;;;;;15.98;11.45;;;;;;;;;;4997872;28;20046;-85
2023/05/23 03:10:20;;;;;;;13.45;10.60;;;;;;;;;;4997586;28;20045;-85
2023/05/23 03:12:46;;;;;;;13.10;10.60;;;;;;;;;;4997671;28;20105;-84
2023/05/23 03:15:12;;;;;;;16.90;10.90;;;;;;;;;;4997652;28;20034;-85
2023/05/23 03:17:38;;;;;;;17.08;10.95;;;;;;;;;;4997458;28;20039;-85
2023/05/23 03:20:08;;;;;;;15.77;10.93;;;;;;;;;;4997497;28;20026;-84
2023/05/23 03:22:34;;;;;;;16.92;11.63;;;;;;;;;;4997349;28;20022;-84
2023/05/23 03:25:00;;;;;;;13.10;10.55;;;;;;;;;;4997741;28;20031;-85
2023/05/23 03:27:26;;;;;;;15.77;12.38;;;;;;;;;;4997740;28;20144;-85
2023/05/23 03:29:52;;;;;;;18.92;11.93;;;;;;;;;;4997167;28;20426;-85
2023/05/23 03:32:19;;;;;;;17.48;11.48;;;;;;;;;;4997571;28;20310;-85
2023/05/23 03:34:45;;;;;;;21.20;11.48;;;;;;;;;;4997387;28;20097;-85
2023/05/23 03:37:11;;;;;;;19.83;11.63;;;;;;;;;;4997403;28;20168;-85
2023/05/23 03:39:37;;;;;;;23.88;11.98;;;;;;;;;;4996870;28;20031;-85
2023/05/23 03:42:03;;;;;;;18.83;10.95;;;;;;;;;;4997858;28;20030;-84
2023/05/23 03:44:29;;;;;;;20.52;11.50;;;;;;;;;;5000604;28;20077;-85
2023/05/23 03:46:55;;;;;;;16.30;12.18;;;;;;;;;;5000411;28;20042;-84
2023/05/23 03:52:24;;;;;;;20.52;13.73;;;;;;;;;;4981889;28;20340;-85
2023/05/23 03:54:50;;;;;;;20.85;12.55;;;;;;;;;;4983279;28;20129;-86
2023/05/23 03:57:17;;;;;;;19.98;13.20;;;;;;;;;;5000633;28;20065;-86
2023/05/23 03:59:43;;;;;;;21.02;12.98;;;;;;;;;;5016403;28;20026;-85
2023/05/23 04:02:09;;;;;;;25.63;13.38;;;;;;;;;;5000604;28;20034;-84
2023/05/23 04:04:35;;;;;;;19.48;12.80;;;;;;;;;;5000665;28;20026;-84
2023/05/23 04:07:01;;;;;;;22.75;13.45;;;;;;;;;;5000470;28;20041;-85
2023/05/23 04:09:27;;;;;;;19.00;12.93;;;;;;;;;;5000299;28;20070;-84
2023/05/23 04:11:53;;;;;;;19.95;13.50;;;;;;;;;;5000396;28;20031;-84
2023/05/23 04:14:21;;;;;;;17.55;12.82;;;;;;;;;;5015947;28;20022;-85
2023/05/23 04:16:47;;;;;;;18.60;13.00;;;;;;;;;;5000465;28;20053;-84
2023/05/23 04:19:13;;;;;;;21.35;14.82;;;;;;;;;;5000282;28;20069;-84
2023/05/23 04:21:39;;;;;;;17.33;14.68;;;;;;;;;;5000330;28;20062;-84
2023/05/23 04:24:05;;;;;;;16.23;13.75;;;;;;;;;;5000220;28;20433;-84
2023/05/23 04:26:31;;;;;;;21.70;13.57;;;;;;;;;;5013547;28;20027;-84
2023/05/23 04:28:58;;;;;;;23.67;15.00;;;;;;;;;;4998572;28;20432;-85
2023/05/23 04:31:24;;;;;;;17.55;13.02;;;;;;;;;;5000152;28;20025;-85
2023/05/23 04:37:08;;;;;;;17.55;13.07;;;;;;;;;;5000207;28;20029;-84
2023/05/23 04:39:34;;;;;;;17.70;13.38;;;;;;;;;;4999700;28;20035;-85
2023/05/23 04:42:01;;;;;;;18.90;13.73;;;;;;;;;;5000092;28;20117;-85
2023/05/23 04:44:29;;;;;;;19.95;13.18;;;;;;;;;;4999756;28;20049;-85
2023/05/23 04:46:55;;;;;;;16.17;12.75;;;;;;;;;;4982013;28;20048;-84
2023/05/23 04:49:42;;;;;;;19.27;12.73;;;;;;;;;;5000015;28;20030;-85
2023/05/23 04:52:08;;;;;;;20.20;12.55;;;;;;;;;;4999331;28;20019;-85
2023/05/23 04:54:36;;;;;;;16.48;12.50;;;;;;;;;;4999637;28;20062;-85
2023/05/23 04:57:02;;;;;;;18.05;13.23;;;;;;;;;;4999641;28;20026;-84
2023/05/23 04:59:28;;;;;;;19.95;14.63;;;;;;;;;;4999860;28;20018;-84
2023/05/23 05:01:54;;;;;;;16.60;13.75;;;;;;;;;;4999589;28;20084;-84
2023/05/23 05:04:21;;;;;;;18.00;13.95;;;;;;;;;;4982170;28;20117;-84
2023/05/23 05:06:48;;;;;;;21.38;13.18;;;;;;;;;;4999548;28;20058;-84
2023/05/23 05:09:14;;;;;;;21.27;13.35;;;;;;;;;;4981665;28;20033;-85
2023/05/23 05:11:40;;;;;;;13.68;12.25;;;;;;;;;;4998872;28;20121;-84
2023/05/23 05:14:06;;;;;;;15.85;12.77;;;;;;;;;;4998766;28;20031;-84
2023/05/23 05:16:32;;;;;;;15.25;12.70;;;;;;;;;;4998768;28;20026;-84
2023/05/23 05:18:58;;;;;;;16.23;13.38;;;;;;;;;;4999129;28;20030;-85
2023/05/23 05:21:24;;;;;;;17.83;13.77;;;;;;;;;;4998887;28;20022;-84
2023/05/23 05:23:51;;;;;;;17.15;14.18;;;;;;;;;;4998512;28;20046;-84
2023/05/23 05:26:17;;;;;;;18.20;14.20;;;;;;;;;;4998617;28;20026;-85
2023/05/23 05:28:43;;;;;;;16.90;14.00;;;;;;;;;;4998862;28;20018;-84
2023/05/23 05:31:13;;;;;;;19.92;14.15;;;;;;;;;;4998473;28;20420;-85
2023/05/23 05:33:40;;;;;;;18.65;14.32;;;;;;;;;;4998886;28;20463;-85
2023/05/23 05:36:07;;;;;;;18.50;13.07;;;;;;;;;;4998972;28;20033;-84
2023/05/23 05:38:33;;;;;;;16.88;13.18;;;;;;;;;;4998321;28;20412;-84
2023/05/23 05:40:59;;;;;;;17.85;13.70;;;;;;;;;;4998432;28;20038;-84
2023/05/23 05:43:25;;;;;;;18.55;13.85;;;;;;;;;;4981202;28;20053;-84
2023/05/23 05:45:51;;;;;;;16.48;13.18;;;;;;;;;;4998776;28;20036;-84
2023/05/23 05:48:17;;;;;;;15.65;12.88;;;;;;;;;;4980714;28;20038;-84
2023/05/23 05:50:44;;;;;;;14.60;13.02;;;;;;;;;;4998262;28;20022;-83
2023/05/23 05:53:13;;;;;;;15.68;12.27;;;;;;;;;;4998075;28;20054;-84
2023/05/23 05:55:39;;;;;;;12.93;10.55;;;;;;;;;;4998291;28;20360;-84
2023/05/23 05:58:05;;;;;;;16.38;10.88;;;;;;;;;;4997952;28;20080;-84
2023/05/23 06:00:31;;;;;;;11.38;10.18;;;;;;;;;;4998447;28;20026;-84
2023/05/23 06:02:59;;;;;;;13.75;11.13;;;;;;;;;;4997931;28;20058;-84
2023/05/23 06:05:25;;;;;;;13.65;11.68;;;;;;;;;;4997699;28;20046;-83
2023/05/23 06:07:52;;;;;;;11.95;10.70;;;;;;;;;;4998489;28;20106;-84
2023/05/23 06:10:18;;;;;;;15.48;10.15;;;;;;;;;;4998053;28;20317;-84
2023/05/23 06:12:47;;;;;;;12.07;8.85;;;;;;;;;;4997508;28;20408;-84
2023/05/23 06:15:14;;;;;;;11.63;8.68;;;;;;;;;;4998075;28;20037;-84
2023/05/23 06:17:40;;;;;;;11.30;9.25;;;;;;;;;;4997700;28;20042;-83
2023/05/23 06:20:07;;;;;;;11.68;8.65;;;;;;;;;;4997755;28;20031;-84
2023/05/23 06:22:33;;;;;;;19.50;9.43;;;;;;;;;;4998052;28;20038;-84
2023/05/23 06:24:59;;;;;;;13.10;9.43;;;;;;;;;;4980395;28;20045;-84
2023/05/23 06:27:25;;;;;;;17.75;9.23;;;;;;;;;;4997660;28;20141;-84
2023/05/23 06:29:51;;;;;;;11.07;8.80;;;;;;;;;;4997936;28;20041;-84
2023/05/23 06:32:17;;;;;;;12.93;9.15;;;;;;;;;;4997184;28;20030;-83
2023/05/23 06:34:43;;;;;;;11.13;9.20;;;;;;;;;;4980268;28;20018;-83
2023/05/23 06:37:09;;;;;;;11.50;8.63;;;;;;;;;;4997542;28;20428;-84
2023/05/23 06:39:35;;;;;;;8.80;7.70;;;;;;;;;;4997849;28;20073;-83
2023/05/23 06:42:03;;;;;;;13.43;8.40;;;;;;;;;;4980659;28;20125;-83
2023/05/23 06:44:29;;;;;;;8.85;7.70;;;;;;;;;;4997711;28;20117;-84
2023/05/23 06:46:58;;;;;;;10.88;7.75;;;;;;;;;;4997340;28;20077;-83
2023/05/23 06:49:25;;;;;;;8.70;7.32;;;;;;;;;;4997473;28;20110;-84
2023/05/23 06:51:51;;;;;;;9.80;7.82;;;;;;;;;;4997374;28;20409;-83
2023/05/23 06:54:17;;;;;;;11.18;8.20;;;;;;;;;;4997543;28;20031;-87
2023/05/23 06:56:43;;;;;;;10.55;7.70;;;;;;;;;;4998076;28;20022;-92
2023/05/23 06:59:09;;;;;;;9.93;7.72;;;;;;;;;;4996927;28;20034;-91
2023/05/23 07:01:35;;;;;;;8.95;7.88;;;;;;;;;;4997266;28;20026;-92
2023/05/23 07:04:01;;;;;;;9.60;6.82;;;;;;;;;;4997315;28;20111;-87
2023/05/23 07:06:28;;;;;;;9.40;6.82;;;;;;;;;;4997308;28;20034;-88
2023/05/23 07:08:54;;;;;;;9.70;7.35;;;;;;;;;;4997463;28;20153;-87
2023/05/23 07:11:21;;;;;;;11.80;6.53;;;;;;;;;;4996996;28;20467;-87
2023/05/23 07:13:47;;;;;;;9.00;6.47;;;;;;;;;;4980781;28;20113;-87
2023/05/23 07:16:13;;;;;;;10.02;6.25;;;;;;;;;;4997536;28;20038;-79
2023/05/23 07:18:40;;;;;;;8.77;6.30;;;;;;;;;;5000556;28;20058;-79
2023/05/23 07:21:06;;;;;;;10.30;7.70;;;;;;;;;;5001075;28;20031;-79
2023/05/23 07:23:35;;;;;;;19.08;11.88;;;;;;;;;;5001265;28;20129;-79
2023/05/23 07:26:02;;;;;;;19.05;10.75;;;;;;;;;;5001064;28;20139;-79
2023/05/23 07:28:28;;;;;;;12.85;9.00;;;;;;;;;;4983765;28;20302;-79
2023/05/23 07:30:56;;;;;;;11.20;5.95;;;;;;;;;;4983566;28;20022;-79
2023/05/23 07:33:23;;;;;;;11.00;7.00;;;;;;;;;;4983320;28;20035;-79
2023/05/23 07:35:49;;;;;;;15.18;9.00;;;;;;;;;;5000784;28;20027;-79
2023/05/23 07:38:15;;;;;;;10.40;6.20;;;;;;;;;;5000785;28;20065;-79
2023/05/23 07:40:41;;;;;;;8.20;5.80;;;;;;;;;;5000651;28;20062;-79
2023/05/23 07:43:07;;;;;;;7.25;5.45;;;;;;;;;;5000443;28;20026;-79
2023/05/23 07:45:33;;;;;;;9.48;6.82;;;;;;;;;;5000674;28;20042;-79
2023/05/23 07:48:00;;;;;;;7.97;5.68;;;;;;;;;;5000559;28;20046;-79
2023/05/23 07:50:26;;;;;;;8.45;6.85;;;;;;;;;;5000444;28;20329;-79
2023/05/23 07:52:53;;;;;;;12.32;7.28;;;;;;;;;;5000699;28;20022;-79
2023/05/23 07:55:20;;;;;;;9.45;5.80;;;;;;;;;;5000711;28;20449;-79
2023/05/23 07:57:46;;;;;;;11.00;6.00;;;;;;;;;;4982810;28;20034;-79
2023/05/23 08:00:13;;;;;;;12.43;5.53;;;;;;;;;;4983359;28;20026;-79
2023/05/23 08:02:39;;;;;;;6.90;5.35;;;;;;;;;;4982540;28;20042;-79
2023/05/23 08:05:07;;;;;;;11.85;5.30;;;;;;;;;;5000218;28;20054;-79
2023/05/23 08:07:33;;;;;;;9.52;5.00;;;;;;;;;;5000300;28;20085;-79
2023/05/23 08:09:59;;;;;;;8.55;5.22;;;;;;;;;;5000113;28;20034;-79
2023/05/23 08:12:25;;;;;;;7.25;4.85;;;;;;;;;;5000211;28;20061;-79
2023/05/23 08:14:51;;;;;;;6.70;5.05;;;;;;;;;;5000314;28;20018;-79
2023/05/23 08:17:17;;;;;;;6.55;4.70;;;;;;;;;;5000039;28;20384;-79
2023/05/23 08:19:43;;;;;;;10.82;4.43;;;;;;;;;;5000084;28;20034;-79
2023/05/23 08:22:09;;;;;;;8.02;4.93;;;;;;;;;;4999985;28;20030;-79
2023/05/23 08:24:35;;;;;;;6.40;4.40;;;;;;;;;;4982736;28;20158;-79
2023/05/23 08:27:01;;;;;;;6.93;4.88;;;;;;;;;;5000075;28;20030;-79
2023/05/23 08:29:27;;;;;;;6.47;4.28;;;;;;;;;;4999573;28;20022;-79
2023/05/23 08:31:53;;;;;;;6.25;4.65;;;;;;;;;;4999823;28;20029;-79
2023/05/23 08:34:20;;;;;;;5.22;4.05;;;;;;;;;;4999617;28;20026;-79
2023/05/23 08:36:46;;;;;;;6.82;4.03;;;;;;;;;;4999753;28;20026;-79
2023/05/23 08:39:12;;;;;;;7.63;3.92;;;;;;;;;;4999952;28;20053;-79
2023/05/23 08:41:38;;;;;;;7.43;4.30;;;;;;;;;;4999829;28;20049;-79
2023/05/23 08:44:05;;;;;;;7.05;4.80;;;;;;;;;;4999609;28;20073;-79
2023/05/23 08:46:31;;;;;;;7.13;4.63;;;;;;;;;;4999577;28;20031;-79
2023/05/23 08:48:59;;;;;;;7.40;4.45;;;;;;;;;;4999294;28;20084;-79
2023/05/23 08:51:26;;;;;;;6.63;4.72;;;;;;;;;;4999366;28;20030;-79
2023/05/23 08:53:52;;;;;;;7.30;4.30;;;;;;;;;;4999569;28;20050;-79
2023/05/23 08:56:18;;;;;;;8.52;5.03;;;;;;;;;;4999543;28;20019;-79
2023/05/23 08:58:46;;;;;;;9.35;5.95;;;;;;;;;;4999290;28;20025;-79
2023/05/23 09:01:13;;;;;;;8.35;4.55;;;;;;;;;;4999310;28;20109;-80
2023/05/23 09:03:43;;;;;;;7.20;4.18;;;;;;;;;;4999088;28;20033;-79
2023/05/23 09:06:09;;;;;;;6.50;4.13;;;;;;;;;;4999294;28;20030;-79
2023/05/23 09:08:36;;;;;;;8.82;4.55;;;;;;;;;;4999381;28;20037;-78
2023/05/23 09:11:03;;;;;;;8.52;5.05;;;;;;;;;;4981776;28;20107;-79
2023/05/23 09:13:30;;;;;;;11.25;5.18;;;;;;;;;;5000043;28;20030;-79
2023/05/23 09:16:08;;;;;;;7.45;4.55;;;;;;;;;;4999121;28;20049;-78
2023/05/23 09:18:36;;;;;;;8.80;4.68;;;;;;;;;;4998597;28;20429;-79
2023/05/23 09:21:02;;;;;;;8.93;4.47;;;;;;;;;;4998963;28;20417;-79
2023/05/23 09:23:30;;;;;;;5.65;5.03;;;;;;;;;;4998725;28;20043;-78
2023/05/23 09:25:56;;;;;;;6.60;4.85;;;;;;;;;;4998407;28;20026;-79
2023/05/23 09:28:22;;;;;;;8.85;4.93;;;;;;;;;;4998672;28;20033;-79
2023/05/23 09:30:57;;;;;;;8.05;5.00;;;;;;;;;;4981308;28;20069;-78
2023/05/23 09:33:23;;;;;;;6.95;4.60;;;;;;;;;;4998788;28;20031;-79
2023/05/23 09:35:49;;;;;;;8.25;4.93;;;;;;;;;;4998586;28;20031;-79
2023/05/23 09:38:15;;;;;;;7.82;4.70;;;;;;;;;;4998566;28;20294;-79
2023/05/23 09:40:44;;;;;;;9.85;4.45;;;;;;;;;;4997770;28;20156;-79
2023/05/23 09:43:10;;;;;;;6.88;4.70;;;;;;;;;;4998571;28;20041;-78
2023/05/23 09:45:36;;;;;;;6.55;4.40;;;;;;;;;;4981164;28;20046;-79
2023/05/23 09:48:03;;;;;;;9.38;5.28;;;;;;;;;;4998467;28;20022;-79
2023/05/23 09:50:33;;;;;;;8.80;4.45;;;;;;;;;;4980908;28;20049;-79
2023/05/23 09:53:00;;;;;;;6.55;5.32;;;;;;;;;;4998473;28;20018;-79
2023/05/23 09:55:26;;;;;;;8.90;4.53;;;;;;;;;;4998293;28;20030;-79
2023/05/23 09:57:56;;;;;;;9.45;5.18;;;;;;;;;;4998147;28;20029;-79
2023/05/23 10:00:23;;;;;;;7.90;4.95;;;;;;;;;;4998081;28;20109;-79
2023/05/23 10:02:54;;;;;;;6.50;4.60;;;;;;;;;;4998091;28;20042;-79
2023/05/23 10:05:27;;;;;;;16.25;5.43;;;;;;;;;;4998018;28;20378;-79
2023/05/23 10:07:56;;;;;;;6.82;5.03;;;;;;;;;;4980663;28;20037;-79
2023/05/23 10:10:23;;;;;;;8.05;5.93;;;;;;;;;;4997829;28;20026;-79
2023/05/23 10:12:55;;;;;;;9.15;5.57;;;;;;;;;;4998015;28;20022;-78
2023/05/23 10:15:22;;;;;;;7.75;5.50;;;;;;;;;;4980678;28;20034;-79
2023/05/23 10:17:51;;;;;;;6.95;5.90;;;;;;;;;;4997903;28;20107;-79
2023/05/23 10:20:19;;;;;;;10.98;5.75;;;;;;;;;;4997882;28;20104;-79
2023/05/23 10:22:45;;;;;;;6.10;5.40;;;;;;;;;;4980782;28;20325;-79
2023/05/23 10:25:12;;;;;;;5.00;4.50;;;;;;;;;;4997881;28;20108;-79
2023/05/23 10:27:39;;;;;;;9.27;5.60;;;;;;;;;;4997730;28;20030;-79
2023/05/23 10:30:06;;;;;;;8.48;6.18;;;;;;;;;;4997649;28;20050;-79
2023/05/23 10:32:33;;;;;;;10.90;6.22;;;;;;;;;;4997608;28;20345;-79
2023/05/23 10:35:01;;;;;;;7.68;6.63;;;;;;;;;;4997838;28;20088;-79
2023/05/23 10:37:35;;;;;;;11.70;7.63;;;;;;;;;;4980385;28;20023;-78
2023/05/23 10:40:05;;;;;;;9.07;6.30;;;;;;;;;;4997946;28;20030;-79
2023/05/23 10:42:50;;;;;;;7.57;6.25;;;;;;;;;;4997475;28;20298;-85
2023/05/23 10:45:19;;;;;;;7.18;5.85;;;;;;;;;;4997476;28;20034;-79
2023/05/23 10:47:50;;;;;;;10.20;6.90;;;;;;;;;;4997591;28;20034;-79
2023/05/23 10:50:30;;;;;;;9.70;6.20;;;;;;;;;;4997379;28;20118;-79
2023/05/23 10:52:56;;;;;;;10.65;7.03;;;;;;;;;;5003955;28;20337;-79
2023/05/23 10:55:22;;;;;;;12.27;7.70;;;;;;;;;;4986727;28;20349;-78
2023/05/23 10:58:08;;;;;;;11.75;6.75;;;;;;;;;;5004138;28;20097;-79
2023/05/23 11:00:34;;;;;;;10.73;7.43;;;;;;;;;;5003961;28;20110;-79
2023/05/23 11:03:00;;;;;;;11.65;8.65;;;;;;;;;;4986576;28;20064;-79
2023/05/23 11:05:30;;;;;;;18.17;15.27;;;;;;;;;;5004009;28;20413;-78
2023/05/23 11:08:07;;;;;;;15.40;11.70;;;;;;;;;;5004153;28;20036;-78
2023/05/23 11:10:50;;;;;;;15.38;9.65;;;;;;;;;;4986137;28;20042;-78
2023/05/23 11:13:16;;;;;;;13.30;9.27;;;;;;;;;;4986622;28;20029;-78
2023/05/23 11:15:44;;;;;;;11.07;8.82;;;;;;;;;;5003774;28;20034;-78
2023/05/23 11:18:19;;;;;;;25.23;19.15;;;;;;;;;;5003641;28;20077;-78
2023/05/23 11:20:46;;;;;;;98.50;74.88;;;;;;;;;;4986334;28;20030;-78
2023/05/23 11:23:12;;;;;;;16.90;12.95;;;;;;;;;;4986069;28;20362;-79
2023/05/23 11:25:44;;;;;;;10.75;7.90;;;;;;;;;;5003903;28;20076;-78
2023/05/23 11:28:11;;;;;;;15.70;10.32;;;;;;;;;;4986664;28;20030;-78
2023/05/23 11:30:38;;;;;;;11.18;6.38;;;;;;;;;;5003789;28;20158;-78
2023/05/23 11:33:08;;;;;;;12.10;6.32;;;;;;;;;;4986508;28;20037;-79
2023/05/23 11:35:35;;;;;;;7.80;5.93;;;;;;;;;;4986495;28;20022;-79
2023/05/23 11:38:02;;;;;;;7.65;5.97;;;;;;;;;;4986396;28;20324;-79
2023/05/23 11:40:31;;;;;;;7.82;4.78;;;;;;;;;;5003526;28;20030;-78
2023/05/23 11:42:58;;;;;;;6.05;4.60;;;;;;;;;;5003456;28;20030;-78
2023/05/23 11:45:24;;;;;;;5.60;4.47;;;;;;;;;;5003632;28;20057;-84
2023/05/23 11:47:50;;;;;;;10.25;4.90;;;;;;;;;;5003545;28;20022;-86
2023/05/23 11:50:43;;;;;;;9.48;5.07;;;;;;;;;;5003790;28;20026;-85
2023/05/23 11:53:09;;;;;;;11.95;6.13;;;;;;;;;;4980732;28;20420;-84
2023/05/23 11:55:35;;;;;;;8.30;5.10;;;;;;;;;;5004069;28;20022;-85
2023/05/23 11:58:01;;;;;;;6.00;4.93;;;;;;;;;;5003863;28;20058;-86
2023/05/23 12:00:29;;;;;;;5.43;4.15;;;;;;;;;;4986613;28;20033;-85
2023/05/23 12:02:57;;;;;;;9.05;5.20;;;;;;;;;;5001836;28;20018;-85
2023/05/23 12:05:25;;;;;;;7.45;4.63;;;;;;;;;;5000761;28;20158;-87
2023/05/23 12:07:51;;;;;;;7.95;4.32;;;;;;;;;;5001025;28;20023;-86
2023/05/23 12:10:18;;;;;;;8.40;4.30;;;;;;;;;;5000935;28;20030;-85
2023/05/23 12:12:44;;;;;;;8.05;4.60;;;;;;;;;;4983193;28;20105;-85
2023/05/23 12:15:11;;;;;;;8.82;4.90;;;;;;;;;;5000601;28;20357;-87
2023/05/23 12:17:47;;;;;;;6.15;4.40;;;;;;;;;;5000195;28;20042;-86
2023/05/23 12:20:13;;;;;;;9.43;4.95;;;;;;;;;;5000964;28;20069;-86
2023/05/23 12:22:39;;;;;;;8.77;4.15;;;;;;;;;;4983262;28;20133;-85
2023/05/23 12:25:10;;;;;;;43.70;5.60;;;;;;;;;;4983112;28;20034;-86
2023/05/23 12:27:37;;;;;;;8.52;3.60;;;;;;;;;;5000391;28;20414;-86
2023/05/23 12:30:31;;;;;;;9.68;4.85;;;;;;;;;;5000501;28;20358;-85
2023/05/23 12:32:57;;;;;;;9.32;3.50;;;;;;;;;;4979812;28;20562;-86
2023/05/23 12:35:42;;;;;;;17.52;5.40;;;;;;;;;;5000529;28;20042;-84
2023/05/23 12:38:08;;;;;;;8.27;3.97;;;;;;;;;;5000056;28;20049;-86
2023/05/23 12:40:34;;;;;;;6.20;3.97;;;;;;;;;;4982968;28;20033;-86
2023/05/23 12:43:01;;;;;;;7.32;3.90;;;;;;;;;;4982664;28;20042;-87
2023/05/23 12:45:35;;;;;;;5.53;3.83;;;;;;;;;;4999971;28;20038;-86
2023/05/23 12:48:05;;;;;;;7.47;4.28;;;;;;;;;;5000320;28;20030;-86
2023/05/23 12:54:07;;;;;;;8.02;3.83;;;;;;;;;;5000119;28;20026;-86
2023/05/23 12:56:33;;;;;;;12.07;3.95;;;;;;;;;;4982561;28;20050;-86
2023/05/23 12:59:02;;;;;;;6.63;4.47;;;;;;;;;;4999840;28;20048;-87
2023/05/23 13:01:28;;;;;;;4.28;3.70;;;;;;;;;;4999972;28;20030;-84
2023/05/23 13:03:54;;;;;;;8.00;5.05;;;;;;;;;;4999701;28;20042;-86
2023/05/23 13:06:20;;;;;;;7.28;4.30;;;;;;;;;;4999884;28;20034;-83
2023/05/23 13:08:47;;;;;;;5.93;4.28;;;;;;;;;;4999429;28;20433;-84
2023/05/23 13:11:13;;;;;;;5.75;4.13;;;;;;;;;;4999374;28;20035;-84
2023/05/23 13:13:39;;;;;;;7.40;4.20;;;;;;;;;;4999293;28;20029;-87
2023/05/23 13:16:06;;;;;;;7.88;4.68;;;;;;;;;;4981348;28;20034;-85
2023/05/23 13:18:32;;;;;;;8.15;4.43;;;;;;;;;;4981929;28;20066;-85
2023/05/23 13:21:17;;;;;;;7.40;4.18;;;;;;;;;;4987968;28;20042;-85
2023/05/23 13:23:43;;;;;;;7.65;4.00;;;;;;;;;;4979815;28;20105;-84
2023/05/23 13:26:09;;;;;;;5.82;4.18;;;;;;;;;;4973353;28;20077;-84
2023/05/23 13:28:36;;;;;;;7.50;4.45;;;;;;;;;;4999323;28;20030;-85
2023/05/23 13:31:02;;;;;;;11.13;4.93;;;;;;;;;;4981783;28;20038;-84
2023/05/23 13:33:28;;;;;;;9.00;4.45;;;;;;;;;;4981302;28;20027;-84
2023/05/23 13:35:56;;;;;;;9.85;5.00;;;;;;;;;;4994233;28;20290;-84
2023/05/23 13:38:22;;;;;;;13.25;5.53;;;;;;;;;;4999254;28;20081;-83
2023/05/23 13:40:50;;;;;;;8.93;4.35;;;;;;;;;;4998244;28;20439;-82
2023/05/23 13:43:16;;;;;;;6.78;4.65;;;;;;;;;;4998272;28;20038;-84
2023/05/23 13:45:42;;;;;;;7.50;4.60;;;;;;;;;;4992934;28;20082;-83
2023/05/23 13:48:08;;;;;;;7.78;4.68;;;;;;;;;;4987754;28;20033;-82
2023/05/23 13:50:34;;;;;;;10.15;4.57;;;;;;;;;;4978899;28;20162;-82
2023/05/23 13:53:01;;;;;;;5.57;4.65;;;;;;;;;;4974846;28;20118;-82
2023/05/23 13:55:27;;;;;;;8.70;4.43;;;;;;;;;;4976778;28;20122;-82
2023/05/23 13:57:53;;;;;;;9.00;4.90;;;;;;;;;;4988325;28;20046;-82
2023/05/23 14:00:19;;;;;;;6.68;5.20;;;;;;;;;;4960931;28;20045;-81
2023/05/23 14:02:45;;;;;;;7.65;4.43;;;;;;;;;;4978617;28;20453;-82
2023/05/23 14:05:14;;;;;;;13.77;5.00;;;;;;;;;;4992137;28;20104;-82
2023/05/23 14:07:41;;;;;;;11.05;4.93;;;;;;;;;;4998271;28;20031;-83
2023/05/23 14:10:08;;;;;;;7.00;4.80;;;;;;;;;;4986309;28;20061;-86
2023/05/23 14:12:34;;;;;;;8.05;5.03;;;;;;;;;;4992558;28;20045;-82
2023/05/23 14:15:00;;;;;;;6.22;5.00;;;;;;;;;;4965884;28;20027;-83
2023/05/23 14:17:26;;;;;;;8.60;5.07;;;;;;;;;;4968146;28;20057;-85
2023/05/23 14:19:52;;;;;;;6.93;5.20;;;;;;;;;;4997200;28;20049;-83
2023/05/23 14:22:21;;;;;;;11.27;5.22;;;;;;;;;;5001670;28;20129;-83
2023/05/23 14:24:47;;;;;;;11.93;4.80;;;;;;;;;;4998484;28;20026;-83
2023/05/23 14:27:13;;;;;;;6.82;4.40;;;;;;;;;;4996700;28;20035;-83
2023/05/23 14:29:39;;;;;;;6.22;4.55;;;;;;;;;;4980555;28;20085;-83
2023/05/23 14:32:05;;;;;;;10.38;5.10;;;;;;;;;;4980587;28;20024;-83
2023/05/23 14:34:31;;;;;;;8.10;5.30;;;;;;;;;;4997879;28;20022;-83
2023/05/23 14:36:57;;;;;;;14.88;7.60;;;;;;;;;;4997035;28;20027;-84
2023/05/23 14:39:24;;;;;;;12.55;6.70;;;;;;;;;;4997595;28;20065;-83
2023/05/23 14:41:50;;;;;;;8.25;4.65;;;;;;;;;;4997886;28;20027;-83